createdAt,value
2019-01-25T00:00:37.000Z,1006.788
2019-01-25T00:10:38.000Z,1006.73
2019-01-25T00:20:38.000Z,1006.696
2019-01-25T00:30:37.000Z,1006.612
2019-01-25T00:40:37.000Z,1006.638
2019-01-25T00:50:37.000Z,1006.76
2019-01-25T01:00:37.000Z,1006.652
2019-01-25T01:10:37.000Z,1006.613
2019-01-25T01:20:37.000Z,1006.645
2019-01-25T01:30:37.000Z,1006.637
2019-01-25T01:40:37.000Z,1006.754
2019-01-25T01:50:37.000Z,1006.727
2019-01-25T02:00:37.000Z,1006.894
2019-01-25T02:10:37.000Z,1006.898
2019-01-25T02:20:37.000Z,1006.822
2019-01-25T02:30:37.000Z,1006.757
2019-01-25T02:40:37.000Z,1006.777
2019-01-25T02:50:37.000Z,1006.779
2019-01-25T03:00:37.000Z,1006.699
2019-01-25T03:10:37.000Z,1006.747
2019-01-25T03:20:38.000Z,1006.658
2019-01-25T03:30:40.000Z,1006.613
2019-01-25T03:40:38.000Z,1006.611
2019-01-25T03:50:38.000Z,1006.582
2019-01-25T04:00:38.000Z,1006.61
2019-01-25T04:10:38.000Z,1006.665
2019-01-25T04:20:38.000Z,1006.68
2019-01-25T04:30:38.000Z,1006.601
2019-01-25T04:40:38.000Z,1006.687
2019-01-25T04:50:38.000Z,1006.599
2019-01-25T05:00:38.000Z,1006.64
2019-01-25T05:10:38.000Z,1006.781
2019-01-25T05:20:38.000Z,1006.82
2019-01-25T05:30:38.000Z,1006.85
2019-01-25T05:40:38.000Z,1007.001
2019-01-25T05:50:38.000Z,1007.076
2019-01-25T06:00:38.000Z,1007.124
2019-01-25T06:10:38.000Z,1007.079
2019-01-25T06:20:38.000Z,1007.157
2019-01-25T06:30:38.000Z,1007.076
2019-01-25T06:40:38.000Z,1007.15
2019-01-25T06:50:38.000Z,1007.204
2019-01-25T07:00:38.000Z,1007.211
2019-01-25T07:10:38.000Z,1007.267
2019-01-25T07:20:38.000Z,1007.257
2019-01-25T07:30:38.000Z,1007.304
2019-01-25T07:40:38.000Z,1007.455
2019-01-25T07:50:38.000Z,1007.543
2019-01-25T08:00:38.000Z,1007.361
2019-01-25T08:10:38.000Z,1007.212
2019-01-25T08:20:38.000Z,1007.265
2019-01-25T08:30:38.000Z,1007.307
2019-01-25T08:40:38.000Z,1007.377
2019-01-25T08:50:38.000Z,1007.449
2019-01-25T09:00:38.000Z,1007.548
2019-01-25T09:10:38.000Z,1007.644
2019-01-25T09:20:38.000Z,1007.681
2019-01-25T09:30:38.000Z,1007.432
2019-01-25T09:40:38.000Z,1007.603
2019-01-25T09:50:38.000Z,1007.5
2019-01-25T10:00:38.000Z,1007.348
2019-01-25T10:10:38.000Z,1007.107
2019-01-25T10:20:39.000Z,1007.198
2019-01-25T10:30:38.000Z,1007.201
2019-01-25T10:40:38.000Z,1007.2
2019-01-25T10:50:39.000Z,1006.949
2019-01-25T11:00:38.000Z,1006.897
2019-01-25T11:10:38.000Z,1006.61
2019-01-25T11:20:38.000Z,1006.454
2019-01-25T11:30:39.000Z,1006.329
2019-01-25T11:40:39.000Z,1006.407
2019-01-25T11:50:39.000Z,1006.535
2019-01-25T12:00:39.000Z,1006.609
2019-01-25T12:10:39.000Z,1006.25
2019-01-25T12:20:39.000Z,1006.205
2019-01-25T12:30:39.000Z,1006.26
2019-01-25T12:40:39.000Z,1006.249
2019-01-25T13:00:39.000Z,1005.919
2019-01-25T13:10:39.000Z,1005.672
2019-01-25T13:20:39.000Z,1005.554
2019-01-25T13:30:39.000Z,1005.313
2019-01-25T13:40:39.000Z,1005.297
2019-01-25T13:50:39.000Z,1005.352
2019-01-25T14:00:39.000Z,1005.188
2019-01-25T14:10:39.000Z,1004.902
2019-01-25T14:20:39.000Z,1004.68
2019-01-25T14:30:39.000Z,1004.671
2019-01-25T14:40:39.000Z,1004.469
2019-01-25T14:50:39.000Z,1004.381
2019-01-25T15:00:39.000Z,1004.282
2019-01-25T15:10:41.000Z,1004.171
2019-01-25T15:20:39.000Z,1004.101
2019-01-25T15:30:39.000Z,1004.158
2019-01-25T15:40:39.000Z,1004.139
2019-01-25T15:50:41.000Z,1004.14
2019-01-25T16:00:39.000Z,1004.216
2019-01-25T16:10:39.000Z,1004.098
2019-01-25T16:20:39.000Z,1003.919
2019-01-25T16:30:39.000Z,1003.697
2019-01-25T16:40:39.000Z,1003.535
2019-01-25T16:50:39.000Z,1003.601
2019-01-25T17:00:39.000Z,1003.457
2019-01-25T17:10:39.000Z,1003.232
2019-01-25T17:20:39.000Z,1003.02
2019-01-25T17:30:39.000Z,1002.829
2019-01-25T17:40:39.000Z,1002.621
2019-01-25T17:50:39.000Z,1002.439
2019-01-25T18:00:42.000Z,1002.142
2019-01-25T18:10:39.000Z,1001.972
2019-01-25T18:20:39.000Z,1001.884
2019-01-25T18:30:39.000Z,1001.754
2019-01-25T18:40:40.000Z,1001.747
2019-01-25T18:50:40.000Z,1001.613
2019-01-25T19:00:39.000Z,1001.312
2019-01-25T19:10:39.000Z,1001.129
2019-01-25T19:20:39.000Z,1001.034
2019-01-25T19:30:40.000Z,1001.036
2019-01-25T19:50:40.000Z,1000.835
2019-01-25T20:00:40.000Z,1000.544
2019-01-25T20:10:40.000Z,1000.535
2019-01-25T20:20:40.000Z,1000.494
2019-01-25T20:30:40.000Z,1000.475
2019-01-25T20:40:40.000Z,1000.392
2019-01-25T20:50:41.000Z,1000.39
2019-01-25T21:00:40.000Z,1000.355
2019-01-25T21:10:40.000Z,1000.373
2019-01-25T21:20:41.000Z,1000.324
2019-01-25T21:30:40.000Z,1000.081
2019-01-25T21:40:40.000Z,999.977
2019-01-25T21:50:40.000Z,999.94
2019-01-25T22:00:40.000Z,999.972
2019-01-25T22:10:40.000Z,999.913
2019-01-25T22:20:40.000Z,999.859
2019-01-25T22:30:40.000Z,999.856
2019-01-25T22:40:43.000Z,999.597
2019-01-25T22:50:40.000Z,999.753
2019-01-25T23:00:44.000Z,999.536
2019-01-25T23:10:40.000Z,999.607
2019-01-25T23:20:40.000Z,999.554
2019-01-25T23:30:40.000Z,999.466
2019-01-25T23:40:40.000Z,999.385
2019-01-25T23:50:40.000Z,999.474
